Terminal Aerodrome Forecast
Issued by NWS

Home | Current Version | Previous Version | Text Only | Print | Product List | Glossary On
Versions: 1 2 3 4 5 6 7 8 9 10 11 12 13 14
000
FTUS45 KRIW 161700
TAFBPI
TAF
KBPI 161720Z 1618/1718 VRB05KT P6SM SCT120
     FM162000 29010KT P6SM VCSH SCT100 BKN130
     FM170300 34008KT P6SM SCT120=

USA.gov is the U.S. government's official web portal to all federal, state and local government web resources and services.